createdAt,value
2022-11-28T00:04:55.817Z,7.61
2022-11-28T00:09:57.450Z,7.53
2022-11-28T00:14:59.071Z,7.44
2022-11-28T00:20:00.657Z,7.47
2022-11-28T00:25:02.238Z,7.45
2022-11-28T00:30:04.374Z,7.43
2022-11-28T00:35:06.239Z,7.51
2022-11-28T00:40:08.107Z,7.41
2022-11-28T00:45:09.659Z,7.50
2022-11-28T00:50:11.402Z,7.40
2022-11-28T00:55:12.991Z,7.41
2022-11-28T01:00:15.160Z,7.38
2022-11-28T01:05:16.851Z,7.45
2022-11-28T01:10:18.792Z,7.42
2022-11-28T01:15:20.354Z,7.44
2022-11-28T01:20:21.859Z,7.49
2022-11-28T01:25:23.773Z,7.44
2022-11-28T01:30:25.495Z,7.40
2022-11-28T01:35:27.218Z,7.38
2022-11-28T01:40:28.754Z,7.40
2022-11-28T01:45:31.878Z,7.33
2022-11-28T01:50:36.101Z,7.35
2022-11-28T01:55:49.332Z,7.33
2022-11-28T02:00:51.232Z,7.20
2022-11-28T02:06:02.683Z,7.23
2022-11-28T02:11:22.820Z,7.28
2022-11-28T02:16:35.498Z,7.23
2022-11-28T02:21:54.999Z,7.24
2022-11-28T02:27:28.522Z,7.29
2022-11-28T02:32:42.162Z,7.39
2022-11-28T02:37:43.635Z,7.39
2022-11-28T02:43:00.539Z,7.45
2022-11-28T02:48:07.081Z,7.40
2022-11-28T02:53:20.161Z,7.44
2022-11-28T02:58:21.648Z,7.40
2022-11-28T03:03:35.573Z,7.39
2022-11-28T03:09:01.369Z,7.45
2022-11-28T03:14:30.406Z,7.41
2022-11-28T03:19:37.883Z,7.38
2022-11-28T03:25:00.667Z,7.40
2022-11-28T03:30:42.674Z,7.42
2022-11-28T03:35:51.466Z,7.29
2022-11-28T03:40:58.439Z,7.18
2022-11-28T03:46:07.687Z,7.14
2022-11-28T03:51:15.206Z,7.18
2022-11-28T03:56:21.728Z,7.29
2022-11-28T04:01:32.141Z,7.21
2022-11-28T04:06:50.926Z,7.16
2022-11-28T04:11:56.674Z,7.23
2022-11-28T04:17:38.028Z,7.13
2022-11-28T04:22:47.030Z,7.07
2022-11-28T04:27:55.007Z,7.04
2022-11-28T04:33:02.751Z,7.00
2022-11-28T04:38:07.194Z,7.06
2022-11-28T04:43:16.705Z,7.03
2022-11-28T04:48:18.733Z,6.97
2022-11-28T04:53:34.079Z,6.97
2022-11-28T04:58:41.144Z,7.05
2022-11-28T05:03:43.110Z,7.02
2022-11-28T05:08:44.693Z,6.94
2022-11-28T05:13:46.525Z,6.90
2022-11-28T05:18:48.495Z,6.86
2022-11-28T05:23:50.099Z,6.84
2022-11-28T05:28:52.065Z,6.82
2022-11-28T05:33:55.204Z,6.77
2022-11-28T05:38:56.763Z,6.79
2022-11-28T05:43:59.647Z,6.79
2022-11-28T05:49:01.281Z,6.80
2022-11-28T05:54:02.926Z,6.80
2022-11-28T05:59:04.461Z,6.85
2022-11-28T06:04:06.039Z,6.89
2022-11-28T06:09:07.775Z,6.83
2022-11-28T06:14:10.644Z,6.93
2022-11-28T06:19:14.966Z,6.83
2022-11-28T06:24:16.750Z,6.75
2022-11-28T06:29:18.410Z,6.65
2022-11-28T06:34:19.977Z,6.64
2022-11-28T06:39:21.586Z,6.63
2022-11-28T06:44:23.092Z,6.61
2022-11-28T06:49:24.617Z,6.61
2022-11-28T06:54:28.006Z,6.61
2022-11-28T06:59:29.644Z,6.62
2022-11-28T07:04:32.469Z,6.62
2022-11-28T07:09:34.220Z,6.61
2022-11-28T07:14:36.060Z,6.63
2022-11-28T07:19:37.755Z,6.66
2022-11-28T07:24:39.306Z,6.73
2022-11-28T07:29:41.221Z,6.77
2022-11-28T07:34:46.608Z,6.76
2022-11-28T07:39:51.704Z,6.85
2022-11-28T07:44:53.335Z,6.79
2022-11-28T07:49:55.061Z,6.75
2022-11-28T07:54:56.581Z,6.84
2022-11-28T07:59:58.095Z,6.87
2022-11-28T08:04:59.693Z,6.91
2022-11-28T08:10:01.235Z,6.91
2022-11-28T08:15:03.049Z,6.98
2022-11-28T08:20:05.212Z,7.01
2022-11-28T08:25:07.010Z,6.97
2022-11-28T08:30:09.452Z,7.06
2022-11-28T08:35:11.113Z,7.08
2022-11-28T08:40:14.329Z,7.03
2022-11-28T08:45:16.004Z,7.10
2022-11-28T08:50:17.605Z,7.10
2022-11-28T08:55:25.011Z,7.17
2022-11-28T09:00:33.285Z,7.19
2022-11-28T09:05:34.781Z,7.23
2022-11-28T09:10:37.953Z,7.33
2022-11-28T09:15:42.260Z,7.33
2022-11-28T09:20:44.092Z,7.37
2022-11-28T09:25:45.633Z,7.44
2022-11-28T09:30:47.325Z,7.64
2022-11-28T09:35:48.865Z,7.53
2022-11-28T09:40:51.596Z,7.55
2022-11-28T09:45:54.592Z,7.55
2022-11-28T09:51:02.929Z,7.54
2022-11-28T09:56:18.419Z,7.58
2022-11-28T10:01:37.593Z,7.62
2022-11-28T10:07:11.254Z,7.85
2022-11-28T10:12:12.746Z,8.01
2022-11-28T10:17:21.061Z,7.92
2022-11-28T10:22:32.398Z,7.78
2022-11-28T10:27:35.739Z,7.86
2022-11-28T10:32:44.090Z,7.95
2022-11-28T10:37:45.878Z,8.00
2022-11-28T10:43:06.268Z,8.08
2022-11-28T10:48:45.733Z,8.10
2022-11-28T10:54:11.681Z,8.13
2022-11-28T10:59:34.876Z,8.26
2022-11-28T11:04:38.697Z,8.23
2022-11-28T11:09:41.293Z,8.11
2022-11-28T11:14:43.788Z,8.29
2022-11-28T11:19:45.493Z,8.30
2022-11-28T11:25:16.016Z,8.33
2022-11-28T11:30:32.000Z,8.27
2022-11-28T11:35:43.785Z,8.27
2022-11-28T11:40:45.423Z,8.27
2022-11-28T11:45:51.282Z,8.25
2022-11-28T11:50:54.467Z,8.37
2022-11-28T11:55:58.422Z,8.41
2022-11-28T12:01:00.933Z,8.41
2022-11-28T12:06:15.059Z,8.53
2022-11-28T12:11:36.938Z,8.65
2022-11-28T12:17:40.399Z,8.62
2022-11-28T12:22:45.238Z,8.57
2022-11-28T12:28:12.476Z,8.48
2022-11-28T12:33:36.122Z,8.59
2022-11-28T12:38:43.687Z,8.59
2022-11-28T12:43:57.930Z,8.73
2022-11-28T12:49:12.908Z,8.77
2022-11-28T12:54:41.670Z,8.72
2022-11-28T13:00:08.143Z,8.61
2022-11-28T13:05:18.910Z,8.66
2022-11-28T13:10:35.323Z,8.68
2022-11-28T13:15:43.104Z,8.87
2022-11-28T13:21:16.818Z,8.90
2022-11-28T13:26:34.362Z,8.81
2022-11-28T13:32:03.938Z,8.92
2022-11-28T13:43:06.475Z,9.12
2022-11-28T13:48:20.441Z,8.93
2022-11-28T13:53:24.348Z,9.16
2022-11-28T13:58:33.816Z,9.07
2022-11-28T14:03:46.511Z,9.20
2022-11-28T14:08:56.963Z,9.18
2022-11-28T14:14:22.362Z,9.17
2022-11-28T14:19:45.869Z,9.15
2022-11-28T14:24:50.146Z,9.06
2022-11-28T14:29:54.720Z,9.13
2022-11-28T14:34:57.134Z,9.18
2022-11-28T14:39:58.724Z,9.14
2022-11-28T14:45:42.823Z,9.13
2022-11-28T14:50:45.956Z,9.07
2022-11-28T14:55:47.616Z,9.12
2022-11-28T15:00:55.858Z,9.24
2022-11-28T15:06:08.645Z,9.15
2022-11-28T15:11:22.323Z,9.14
2022-11-28T15:16:24.749Z,9.09
2022-11-28T15:21:29.024Z,9.12
2022-11-28T15:26:30.773Z,9.13
2022-11-28T15:31:33.225Z,9.06
2022-11-28T15:36:34.821Z,9.07
2022-11-28T15:41:36.380Z,9.11
2022-11-28T15:46:38.022Z,9.07
2022-11-28T15:51:40.146Z,9.10
2022-11-28T15:56:59.609Z,9.14
2022-11-28T16:02:16.578Z,9.20
2022-11-28T16:07:18.962Z,9.15
2022-11-28T16:12:20.888Z,9.16
2022-11-28T16:17:27.394Z,9.14
2022-11-28T16:22:38.058Z,9.16
2022-11-28T16:27:42.673Z,9.19
2022-11-28T16:32:44.310Z,9.14
2022-11-28T16:37:45.876Z,9.17
2022-11-28T16:42:53.300Z,9.08
2022-11-28T16:48:08.078Z,9.10
2022-11-28T16:53:38.626Z,9.08
2022-11-28T16:58:40.133Z,9.05
2022-11-28T17:03:44.475Z,9.02
2022-11-28T17:08:46.625Z,9.11
2022-11-28T17:13:48.404Z,9.05
2022-11-28T17:18:50.767Z,9.01
2022-11-28T17:23:52.272Z,9.05
2022-11-28T17:28:54.115Z,9.06
2022-11-28T17:33:55.645Z,9.04
2022-11-28T17:39:00.965Z,9.00
2022-11-28T17:44:06.005Z,9.02
2022-11-28T17:49:07.606Z,9.04
2022-11-28T17:54:12.503Z,9.03
2022-11-28T17:59:15.974Z,9.06
2022-11-28T18:04:18.126Z,9.09
2022-11-28T18:09:19.700Z,9.08
2022-11-28T18:14:21.412Z,9.11
2022-11-28T18:19:23.056Z,9.13
2022-11-28T18:24:24.605Z,9.17
2022-11-28T18:29:26.771Z,9.04
2022-11-28T18:34:28.319Z,9.11
2022-11-28T18:39:30.352Z,9.11
2022-11-28T18:44:32.121Z,8.99
2022-11-28T18:49:33.658Z,9.04
2022-11-28T18:54:35.701Z,9.03
2022-11-28T18:59:37.962Z,9.02
2022-11-28T19:04:39.733Z,9.02
2022-11-28T19:09:41.451Z,9.00
2022-11-28T19:14:43.208Z,9.05
2022-11-28T19:19:45.141Z,9.06
2022-11-28T19:24:46.878Z,9.06
2022-11-28T19:29:48.382Z,9.07
2022-11-28T19:34:49.876Z,9.09
2022-11-28T19:39:51.671Z,9.11
2022-11-28T19:44:53.163Z,9.07
2022-11-28T19:49:54.766Z,9.13
2022-11-28T19:54:57.074Z,9.17
2022-11-28T19:59:58.757Z,9.20
2022-11-28T20:05:00.634Z,9.10
2022-11-28T20:10:02.166Z,9.03
2022-11-28T20:15:04.262Z,9.00
2022-11-28T20:20:06.940Z,8.99
2022-11-28T20:25:08.578Z,9.01
2022-11-28T20:30:10.617Z,9.03
2022-11-28T20:35:12.395Z,9.00
2022-11-28T20:40:14.268Z,8.93
2022-11-28T20:45:15.870Z,8.99
2022-11-28T20:50:17.450Z,8.97
2022-11-28T20:55:18.963Z,9.04
2022-11-28T21:00:26.272Z,9.05
2022-11-28T21:05:28.179Z,9.11
2022-11-28T21:10:29.733Z,9.11
2022-11-28T21:15:31.379Z,8.98
2022-11-28T21:20:32.909Z,8.99
2022-11-28T21:25:36.250Z,9.02
2022-11-28T21:30:43.567Z,9.03
2022-11-28T21:35:45.060Z,9.01
2022-11-28T21:40:52.359Z,8.95
2022-11-28T21:46:00.183Z,8.94
2022-11-28T21:51:02.137Z,8.92
2022-11-28T21:56:03.879Z,8.93
2022-11-28T22:01:08.901Z,8.98
2022-11-28T22:06:23.918Z,9.01
2022-11-28T22:11:25.503Z,8.92
2022-11-28T22:16:29.273Z,8.79
2022-11-28T22:26:53.390Z,8.86
2022-11-28T22:31:55.074Z,8.80
2022-11-28T22:36:57.885Z,8.72
2022-11-28T22:41:59.627Z,8.58
2022-11-28T22:47:01.143Z,8.54
2022-11-28T22:52:04.037Z,8.50
2022-11-28T22:57:05.564Z,8.52
2022-11-28T23:02:07.252Z,8.53
2022-11-28T23:07:09.492Z,8.45
2022-11-28T23:12:11.019Z,8.38
2022-11-28T23:17:12.524Z,8.34
2022-11-28T23:22:15.036Z,8.29
2022-11-28T23:27:16.852Z,8.33
2022-11-28T23:32:18.475Z,8.45
2022-11-28T23:37:20.438Z,8.62
2022-11-28T23:42:21.955Z,8.62
2022-11-28T23:47:23.519Z,8.63
2022-11-28T23:52:25.110Z,8.64
2022-11-28T23:57:26.619Z,8.66
